sensor_id;sensor_type;location;lat;lon;timestamp;P1;durP1;ratioP1;P2;durP2;ratioP2
70148;SDS011;57514;52.164;5.282;2023-05-20T00:00:33;12.40;;;4.13;;
70148;SDS011;57514;52.164;5.282;2023-05-20T00:03:00;10.60;;;4.10;;
70148;SDS011;57514;52.164;5.282;2023-05-20T00:05:28;10.40;;;4.13;;
70148;SDS011;57514;52.164;5.282;2023-05-20T00:07:58;10.18;;;4.53;;
70148;SDS011;57514;52.164;5.282;2023-05-20T00:10:26;12.77;;;5.07;;
70148;SDS011;57514;52.164;5.282;2023-05-20T00:12:53;9.20;;;4.03;;
70148;SDS011;57514;52.164;5.282;2023-05-20T00:15:20;10.65;;;4.72;;
70148;SDS011;57514;52.164;5.282;2023-05-20T00:17:48;17.58;;;4.85;;
70148;SDS011;57514;52.164;5.282;2023-05-20T00:20:29;11.70;;;5.40;;
70148;SDS011;57514;52.164;5.282;2023-05-20T00:22:57;10.55;;;4.18;;
70148;SDS011;57514;52.164;5.282;2023-05-20T00:25:24;12.60;;;4.60;;
70148;SDS011;57514;52.164;5.282;2023-05-20T00:27:55;11.05;;;4.72;;
70148;SDS011;57514;52.164;5.282;2023-05-20T00:30:25;13.02;;;4.85;;
70148;SDS011;57514;52.164;5.282;2023-05-20T00:32:52;12.38;;;5.68;;
70148;SDS011;57514;52.164;5.282;2023-05-20T00:35:20;11.20;;;4.80;;
70148;SDS011;57514;52.164;5.282;2023-05-20T00:37:53;12.70;;;4.32;;
70148;SDS011;57514;52.164;5.282;2023-05-20T00:40:21;11.80;;;4.68;;
70148;SDS011;57514;52.164;5.282;2023-05-20T00:42:50;12.88;;;4.57;;
70148;SDS011;57514;52.164;5.282;2023-05-20T00:45:17;10.13;;;3.97;;
70148;SDS011;57514;52.164;5.282;2023-05-20T00:47:47;14.15;;;4.63;;
70148;SDS011;57514;52.164;5.282;2023-05-20T00:50:15;13.02;;;4.63;;
70148;SDS011;57514;52.164;5.282;2023-05-20T00:52:43;13.85;;;4.45;;
70148;SDS011;57514;52.164;5.282;2023-05-20T00:55:13;11.55;;;4.40;;
70148;SDS011;57514;52.164;5.282;2023-05-20T00:57:41;11.18;;;4.72;;
70148;SDS011;57514;52.164;5.282;2023-05-20T01:00:08;12.38;;;5.40;;
70148;SDS011;57514;52.164;5.282;2023-05-20T01:02:36;10.93;;;4.40;;
70148;SDS011;57514;52.164;5.282;2023-05-20T01:05:04;12.23;;;4.68;;
70148;SDS011;57514;52.164;5.282;2023-05-20T01:07:32;14.70;;;5.30;;
70148;SDS011;57514;52.164;5.282;2023-05-20T01:09:59;10.55;;;4.47;;
70148;SDS011;57514;52.164;5.282;2023-05-20T01:12:41;10.50;;;4.88;;
70148;SDS011;57514;52.164;5.282;2023-05-20T01:15:10;13.85;;;5.13;;
70148;SDS011;57514;52.164;5.282;2023-05-20T01:17:42;11.35;;;4.60;;
70148;SDS011;57514;52.164;5.282;2023-05-20T01:20:11;13.32;;;4.65;;
70148;SDS011;57514;52.164;5.282;2023-05-20T01:22:51;12.85;;;5.18;;
70148;SDS011;57514;52.164;5.282;2023-05-20T01:25:19;11.20;;;4.75;;
70148;SDS011;57514;52.164;5.282;2023-05-20T01:27:46;12.05;;;4.55;;
70148;SDS011;57514;52.164;5.282;2023-05-20T01:30:14;13.55;;;5.30;;
70148;SDS011;57514;52.164;5.282;2023-05-20T01:32:43;12.88;;;5.00;;
70148;SDS011;57514;52.164;5.282;2023-05-20T01:35:13;11.68;;;4.63;;
70148;SDS011;57514;52.164;5.282;2023-05-20T01:37:42;13.77;;;5.25;;
70148;SDS011;57514;52.164;5.282;2023-05-20T01:40:11;13.35;;;5.97;;
70148;SDS011;57514;52.164;5.282;2023-05-20T01:42:40;14.43;;;4.45;;
70148;SDS011;57514;52.164;5.282;2023-05-20T01:45:08;16.98;;;4.75;;
70148;SDS011;57514;52.164;5.282;2023-05-20T01:47:36;10.70;;;4.50;;
70148;SDS011;57514;52.164;5.282;2023-05-20T01:50:04;11.32;;;5.20;;
70148;SDS011;57514;52.164;5.282;2023-05-20T01:52:31;12.73;;;4.70;;
70148;SDS011;57514;52.164;5.282;2023-05-20T01:54:59;14.77;;;5.20;;
70148;SDS011;57514;52.164;5.282;2023-05-20T01:57:26;15.20;;;5.13;;
70148;SDS011;57514;52.164;5.282;2023-05-20T01:59:54;14.38;;;5.05;;
70148;SDS011;57514;52.164;5.282;2023-05-20T02:02:23;13.00;;;4.88;;
70148;SDS011;57514;52.164;5.282;2023-05-20T02:04:52;14.50;;;4.63;;
70148;SDS011;57514;52.164;5.282;2023-05-20T02:07:19;12.38;;;4.90;;
70148;SDS011;57514;52.164;5.282;2023-05-20T02:09:47;13.05;;;4.90;;
70148;SDS011;57514;52.164;5.282;2023-05-20T02:12:14;10.90;;;4.65;;
70148;SDS011;57514;52.164;5.282;2023-05-20T02:14:46;14.75;;;5.28;;
70148;SDS011;57514;52.164;5.282;2023-05-20T02:17:18;14.52;;;5.47;;
70148;SDS011;57514;52.164;5.282;2023-05-20T02:22:39;14.18;;;5.18;;
70148;SDS011;57514;52.164;5.282;2023-05-20T02:25:08;13.77;;;4.72;;
70148;SDS011;57514;52.164;5.282;2023-05-20T02:27:36;11.80;;;5.00;;
70148;SDS011;57514;52.164;5.282;2023-05-20T02:30:04;14.95;;;5.40;;
70148;SDS011;57514;52.164;5.282;2023-05-20T02:32:31;13.93;;;6.03;;
70148;SDS011;57514;52.164;5.282;2023-05-20T02:34:59;12.55;;;5.22;;
70148;SDS011;57514;52.164;5.282;2023-05-20T02:37:26;12.95;;;5.32;;
70148;SDS011;57514;52.164;5.282;2023-05-20T02:39:57;13.32;;;4.72;;
70148;SDS011;57514;52.164;5.282;2023-05-20T02:42:27;14.27;;;5.07;;
70148;SDS011;57514;52.164;5.282;2023-05-20T02:44:54;11.40;;;5.10;;
70148;SDS011;57514;52.164;5.282;2023-05-20T02:47:24;10.10;;;4.68;;
70148;SDS011;57514;52.164;5.282;2023-05-20T02:49:51;14.93;;;5.03;;
70148;SDS011;57514;52.164;5.282;2023-05-20T02:52:19;12.40;;;4.68;;
70148;SDS011;57514;52.164;5.282;2023-05-20T02:54:47;13.32;;;5.30;;
70148;SDS011;57514;52.164;5.282;2023-05-20T02:57:14;14.02;;;4.82;;
70148;SDS011;57514;52.164;5.282;2023-05-20T03:02:47;15.27;;;6.47;;
70148;SDS011;57514;52.164;5.282;2023-05-20T03:05:35;14.15;;;5.10;;
70148;SDS011;57514;52.164;5.282;2023-05-20T03:08:10;14.15;;;4.53;;
70148;SDS011;57514;52.164;5.282;2023-05-20T03:10:37;12.35;;;4.88;;
70148;SDS011;57514;52.164;5.282;2023-05-20T03:13:05;12.98;;;5.80;;
70148;SDS011;57514;52.164;5.282;2023-05-20T03:15:37;12.63;;;5.07;;
70148;SDS011;57514;52.164;5.282;2023-05-20T03:18:05;13.00;;;5.40;;
70148;SDS011;57514;52.164;5.282;2023-05-20T03:20:34;12.95;;;4.70;;
70148;SDS011;57514;52.164;5.282;2023-05-20T03:23:02;13.48;;;5.22;;
70148;SDS011;57514;52.164;5.282;2023-05-20T03:25:29;13.68;;;5.20;;
70148;SDS011;57514;52.164;5.282;2023-05-20T03:27:57;12.98;;;5.15;;
70148;SDS011;57514;52.164;5.282;2023-05-20T03:30:28;12.50;;;5.43;;
70148;SDS011;57514;52.164;5.282;2023-05-20T03:32:56;13.68;;;5.22;;
70148;SDS011;57514;52.164;5.282;2023-05-20T03:35:24;13.70;;;5.20;;
70148;SDS011;57514;52.164;5.282;2023-05-20T03:37:53;12.30;;;4.82;;
70148;SDS011;57514;52.164;5.282;2023-05-20T03:40:22;12.88;;;5.35;;
70148;SDS011;57514;52.164;5.282;2023-05-20T03:42:50;13.45;;;5.15;;
70148;SDS011;57514;52.164;5.282;2023-05-20T03:45:19;13.15;;;5.15;;
70148;SDS011;57514;52.164;5.282;2023-05-20T03:47:55;11.30;;;4.88;;
70148;SDS011;57514;52.164;5.282;2023-05-20T03:50:23;15.63;;;5.90;;
70148;SDS011;57514;52.164;5.282;2023-05-20T03:52:50;11.77;;;4.85;;
70148;SDS011;57514;52.164;5.282;2023-05-20T03:55:20;13.30;;;5.15;;
70148;SDS011;57514;52.164;5.282;2023-05-20T03:57:48;15.70;;;5.50;;
70148;SDS011;57514;52.164;5.282;2023-05-20T04:00:15;14.18;;;5.22;;
70148;SDS011;57514;52.164;5.282;2023-05-20T04:02:43;14.02;;;5.20;;
70148;SDS011;57514;52.164;5.282;2023-05-20T04:05:14;14.65;;;5.30;;
70148;SDS011;57514;52.164;5.282;2023-05-20T04:07:42;12.65;;;4.85;;
70148;SDS011;57514;52.164;5.282;2023-05-20T04:10:11;12.73;;;5.35;;
70148;SDS011;57514;52.164;5.282;2023-05-20T04:12:39;14.20;;;5.38;;
70148;SDS011;57514;52.164;5.282;2023-05-20T04:15:07;13.18;;;5.18;;
70148;SDS011;57514;52.164;5.282;2023-05-20T04:20:36;14.68;;;5.63;;
70148;SDS011;57514;52.164;5.282;2023-05-20T04:23:04;16.08;;;5.78;;
70148;SDS011;57514;52.164;5.282;2023-05-20T04:25:31;12.55;;;4.65;;
70148;SDS011;57514;52.164;5.282;2023-05-20T04:28:00;14.23;;;5.53;;
70148;SDS011;57514;52.164;5.282;2023-05-20T04:30:28;13.82;;;5.38;;
70148;SDS011;57514;52.164;5.282;2023-05-20T04:32:58;11.63;;;5.15;;
70148;SDS011;57514;52.164;5.282;2023-05-20T04:35:29;11.40;;;4.82;;
70148;SDS011;57514;52.164;5.282;2023-05-20T04:38:03;11.43;;;5.22;;
70148;SDS011;57514;52.164;5.282;2023-05-20T04:40:30;15.48;;;5.50;;
70148;SDS011;57514;52.164;5.282;2023-05-20T04:42:58;12.18;;;5.13;;
70148;SDS011;57514;52.164;5.282;2023-05-20T04:45:26;14.88;;;5.05;;
70148;SDS011;57514;52.164;5.282;2023-05-20T04:47:53;12.25;;;5.55;;
70148;SDS011;57514;52.164;5.282;2023-05-20T04:50:21;14.57;;;5.60;;
70148;SDS011;57514;52.164;5.282;2023-05-20T04:52:48;13.93;;;5.38;;
70148;SDS011;57514;52.164;5.282;2023-05-20T04:55:15;12.27;;;4.90;;
70148;SDS011;57514;52.164;5.282;2023-05-20T04:57:43;13.50;;;5.72;;
70148;SDS011;57514;52.164;5.282;2023-05-20T05:00:11;12.68;;;4.82;;
70148;SDS011;57514;52.164;5.282;2023-05-20T05:02:39;13.65;;;4.72;;
70148;SDS011;57514;52.164;5.282;2023-05-20T05:05:06;11.68;;;5.03;;
70148;SDS011;57514;52.164;5.282;2023-05-20T05:07:34;16.10;;;5.30;;
70148;SDS011;57514;52.164;5.282;2023-05-20T05:10:01;10.73;;;4.45;;
70148;SDS011;57514;52.164;5.282;2023-05-20T05:12:30;14.30;;;4.82;;
70148;SDS011;57514;52.164;5.282;2023-05-20T05:14:58;10.98;;;4.32;;
70148;SDS011;57514;52.164;5.282;2023-05-20T05:17:26;18.67;;;4.93;;
70148;SDS011;57514;52.164;5.282;2023-05-20T05:19:55;11.18;;;4.63;;
70148;SDS011;57514;52.164;5.282;2023-05-20T05:22:24;11.20;;;4.30;;
70148;SDS011;57514;52.164;5.282;2023-05-20T05:24:51;11.23;;;4.70;;
70148;SDS011;57514;52.164;5.282;2023-05-20T05:27:21;15.48;;;5.30;;
70148;SDS011;57514;52.164;5.282;2023-05-20T05:29:48;9.60;;;4.70;;
70148;SDS011;57514;52.164;5.282;2023-05-20T05:32:17;10.18;;;4.45;;
70148;SDS011;57514;52.164;5.282;2023-05-20T05:34:44;12.07;;;4.80;;
70148;SDS011;57514;52.164;5.282;2023-05-20T05:37:12;11.85;;;4.72;;
70148;SDS011;57514;52.164;5.282;2023-05-20T05:39:40;11.63;;;4.35;;
70148;SDS011;57514;52.164;5.282;2023-05-20T05:42:07;10.32;;;4.25;;
70148;SDS011;57514;52.164;5.282;2023-05-20T05:44:35;11.63;;;4.10;;
70148;SDS011;57514;52.164;5.282;2023-05-20T05:47:04;10.27;;;4.10;;
70148;SDS011;57514;52.164;5.282;2023-05-20T05:49:32;9.98;;;4.07;;
70148;SDS011;57514;52.164;5.282;2023-05-20T05:52:01;9.20;;;4.00;;
70148;SDS011;57514;52.164;5.282;2023-05-20T05:54:28;9.98;;;4.03;;
70148;SDS011;57514;52.164;5.282;2023-05-20T05:56:56;11.70;;;4.65;;
70148;SDS011;57514;52.164;5.282;2023-05-20T05:59:25;12.43;;;4.20;;
70148;SDS011;57514;52.164;5.282;2023-05-20T06:01:57;11.40;;;4.57;;
70148;SDS011;57514;52.164;5.282;2023-05-20T06:04:27;11.70;;;4.78;;
70148;SDS011;57514;52.164;5.282;2023-05-20T06:06:56;9.88;;;4.30;;
70148;SDS011;57514;52.164;5.282;2023-05-20T06:09:29;12.35;;;4.47;;
70148;SDS011;57514;52.164;5.282;2023-05-20T06:12:00;11.40;;;4.20;;
70148;SDS011;57514;52.164;5.282;2023-05-20T06:15:04;11.25;;;3.80;;
70148;SDS011;57514;52.164;5.282;2023-05-20T06:17:34;10.63;;;4.25;;
70148;SDS011;57514;52.164;5.282;2023-05-20T06:20:02;9.02;;;4.35;;
70148;SDS011;57514;52.164;5.282;2023-05-20T06:22:29;10.55;;;4.53;;
70148;SDS011;57514;52.164;5.282;2023-05-20T06:24:57;8.80;;;3.72;;
70148;SDS011;57514;52.164;5.282;2023-05-20T06:30:40;9.55;;;4.03;;
70148;SDS011;57514;52.164;5.282;2023-05-20T06:35:58;8.55;;;3.80;;
70148;SDS011;57514;52.164;5.282;2023-05-20T06:38:27;10.38;;;4.55;;
70148;SDS011;57514;52.164;5.282;2023-05-20T06:40:58;9.35;;;4.20;;
70148;SDS011;57514;52.164;5.282;2023-05-20T06:43:28;10.95;;;4.63;;
70148;SDS011;57514;52.164;5.282;2023-05-20T06:46:33;9.77;;;4.00;;
70148;SDS011;57514;52.164;5.282;2023-05-20T06:49:04;10.18;;;4.65;;
70148;SDS011;57514;52.164;5.282;2023-05-20T06:51:31;10.95;;;4.25;;
70148;SDS011;57514;52.164;5.282;2023-05-20T06:54:05;9.35;;;3.70;;
70148;SDS011;57514;52.164;5.282;2023-05-20T06:56:32;9.68;;;4.30;;
70148;SDS011;57514;52.164;5.282;2023-05-20T06:58:59;7.78;;;3.58;;
70148;SDS011;57514;52.164;5.282;2023-05-20T07:01:28;9.18;;;3.95;;
70148;SDS011;57514;52.164;5.282;2023-05-20T07:03:55;9.88;;;4.30;;
70148;SDS011;57514;52.164;5.282;2023-05-20T07:06:23;8.43;;;4.03;;
70148;SDS011;57514;52.164;5.282;2023-05-20T07:08:50;7.70;;;3.70;;
70148;SDS011;57514;52.164;5.282;2023-05-20T07:11:18;11.45;;;3.90;;
70148;SDS011;57514;52.164;5.282;2023-05-20T07:13:47;10.55;;;4.25;;
70148;SDS011;57514;52.164;5.282;2023-05-20T07:16:13;8.98;;;3.65;;
70148;SDS011;57514;52.164;5.282;2023-05-20T07:18:46;10.50;;;4.28;;
70148;SDS011;57514;52.164;5.282;2023-05-20T07:21:13;8.07;;;3.53;;
70148;SDS011;57514;52.164;5.282;2023-05-20T07:24:13;9.70;;;3.80;;
70148;SDS011;57514;52.164;5.282;2023-05-20T07:26:40;9.15;;;3.80;;
70148;SDS011;57514;52.164;5.282;2023-05-20T07:29:21;8.50;;;3.60;;
70148;SDS011;57514;52.164;5.282;2023-05-20T07:31:51;11.48;;;3.60;;
70148;SDS011;57514;52.164;5.282;2023-05-20T07:34:21;7.72;;;3.42;;
70148;SDS011;57514;52.164;5.282;2023-05-20T07:36:49;9.05;;;3.88;;
70148;SDS011;57514;52.164;5.282;2023-05-20T07:39:17;7.25;;;3.35;;
70148;SDS011;57514;52.164;5.282;2023-05-20T07:41:46;8.27;;;3.60;;
70148;SDS011;57514;52.164;5.282;2023-05-20T07:44:14;8.35;;;3.70;;
70148;SDS011;57514;52.164;5.282;2023-05-20T07:46:46;8.10;;;3.60;;
70148;SDS011;57514;52.164;5.282;2023-05-20T07:49:15;8.40;;;3.45;;
70148;SDS011;57514;52.164;5.282;2023-05-20T07:51:43;7.88;;;3.25;;
70148;SDS011;57514;52.164;5.282;2023-05-20T07:54:14;8.38;;;3.30;;
70148;SDS011;57514;52.164;5.282;2023-05-20T07:56:44;9.38;;;3.47;;
70148;SDS011;57514;52.164;5.282;2023-05-20T07:59:12;7.40;;;3.58;;
70148;SDS011;57514;52.164;5.282;2023-05-20T08:01:42;10.98;;;3.05;;
70148;SDS011;57514;52.164;5.282;2023-05-20T08:04:12;7.88;;;3.55;;
70148;SDS011;57514;52.164;5.282;2023-05-20T08:06:39;8.07;;;3.35;;
70148;SDS011;57514;52.164;5.282;2023-05-20T08:09:13;8.60;;;3.45;;
70148;SDS011;57514;52.164;5.282;2023-05-20T08:11:46;8.95;;;3.17;;
70148;SDS011;57514;52.164;5.282;2023-05-20T08:14:13;7.97;;;3.00;;
70148;SDS011;57514;52.164;5.282;2023-05-20T08:16:42;7.25;;;3.03;;
70148;SDS011;57514;52.164;5.282;2023-05-20T08:19:09;7.93;;;3.03;;
70148;SDS011;57514;52.164;5.282;2023-05-20T08:21:36;7.93;;;3.28;;
70148;SDS011;57514;52.164;5.282;2023-05-20T08:24:04;6.75;;;2.70;;
70148;SDS011;57514;52.164;5.282;2023-05-20T08:26:31;7.20;;;2.58;;
70148;SDS011;57514;52.164;5.282;2023-05-20T08:28:59;6.78;;;2.85;;
70148;SDS011;57514;52.164;5.282;2023-05-20T08:31:27;6.88;;;3.20;;
70148;SDS011;57514;52.164;5.282;2023-05-20T08:34:01;7.18;;;2.90;;
70148;SDS011;57514;52.164;5.282;2023-05-20T08:36:28;6.88;;;2.90;;
70148;SDS011;57514;52.164;5.282;2023-05-20T08:41:56;5.65;;;2.33;;
70148;SDS011;57514;52.164;5.282;2023-05-20T08:44:28;4.10;;;2.10;;
70148;SDS011;57514;52.164;5.282;2023-05-20T08:46:55;7.40;;;2.50;;
70148;SDS011;57514;52.164;5.282;2023-05-20T08:49:23;6.72;;;2.63;;
70148;SDS011;57514;52.164;5.282;2023-05-20T08:51:50;3.97;;;2.15;;
70148;SDS011;57514;52.164;5.282;2023-05-20T08:54:18;5.07;;;2.47;;
70148;SDS011;57514;52.164;5.282;2023-05-20T08:56:49;9.40;;;2.58;;
70148;SDS011;57514;52.164;5.282;2023-05-20T08:59:19;5.28;;;2.60;;
70148;SDS011;57514;52.164;5.282;2023-05-20T09:01:47;6.80;;;2.45;;
70148;SDS011;57514;52.164;5.282;2023-05-20T09:04:14;6.63;;;2.42;;
70148;SDS011;57514;52.164;5.282;2023-05-20T09:06:45;7.00;;;2.00;;
70148;SDS011;57514;52.164;5.282;2023-05-20T09:09:12;7.05;;;2.15;;
70148;SDS011;57514;52.164;5.282;2023-05-20T09:11:40;6.60;;;2.33;;
70148;SDS011;57514;52.164;5.282;2023-05-20T09:14:07;6.05;;;2.40;;
70148;SDS011;57514;52.164;5.282;2023-05-20T09:16:34;5.20;;;2.30;;
70148;SDS011;57514;52.164;5.282;2023-05-20T09:19:04;5.85;;;2.38;;
70148;SDS011;57514;52.164;5.282;2023-05-20T09:21:33;10.25;;;2.63;;
70148;SDS011;57514;52.164;5.282;2023-05-20T09:24:01;10.70;;;2.40;;
70148;SDS011;57514;52.164;5.282;2023-05-20T09:26:28;4.95;;;1.92;;
70148;SDS011;57514;52.164;5.282;2023-05-20T09:28:55;5.50;;;2.30;;
70148;SDS011;57514;52.164;5.282;2023-05-20T09:31:29;6.38;;;2.30;;
70148;SDS011;57514;52.164;5.282;2023-05-20T09:33:56;6.22;;;2.60;;
70148;SDS011;57514;52.164;5.282;2023-05-20T09:36:24;4.32;;;1.80;;
70148;SDS011;57514;52.164;5.282;2023-05-20T09:38:56;7.15;;;2.30;;
70148;SDS011;57514;52.164;5.282;2023-05-20T09:41:37;7.13;;;2.50;;
70148;SDS011;57514;52.164;5.282;2023-05-20T09:44:05;5.78;;;2.15;;
70148;SDS011;57514;52.164;5.282;2023-05-20T09:46:32;13.52;;;2.40;;
70148;SDS011;57514;52.164;5.282;2023-05-20T09:49:03;6.28;;;2.53;;
70148;SDS011;57514;52.164;5.282;2023-05-20T09:51:36;6.50;;;2.70;;
70148;SDS011;57514;52.164;5.282;2023-05-20T09:54:09;5.80;;;2.50;;
70148;SDS011;57514;52.164;5.282;2023-05-20T09:56:38;7.72;;;2.55;;
70148;SDS011;57514;52.164;5.282;2023-05-20T09:59:06;5.65;;;2.30;;
70148;SDS011;57514;52.164;5.282;2023-05-20T10:01:35;4.25;;;1.92;;
70148;SDS011;57514;52.164;5.282;2023-05-20T10:04:05;5.25;;;2.03;;
70148;SDS011;57514;52.164;5.282;2023-05-20T10:14:44;3.75;;;1.83;;
70148;SDS011;57514;52.164;5.282;2023-05-20T10:20:05;7.13;;;2.20;;
70148;SDS011;57514;52.164;5.282;2023-05-20T10:22:37;6.10;;;2.15;;
70148;SDS011;57514;52.164;5.282;2023-05-20T10:25:10;7.30;;;1.90;;
70148;SDS011;57514;52.164;5.282;2023-05-20T10:27:47;6.35;;;1.80;;
70148;SDS011;57514;52.164;5.282;2023-05-20T10:30:15;3.33;;;1.67;;
70148;SDS011;57514;52.164;5.282;2023-05-20T10:32:54;4.35;;;2.13;;
70148;SDS011;57514;52.164;5.282;2023-05-20T10:35:26;5.75;;;2.10;;
70148;SDS011;57514;52.164;5.282;2023-05-20T10:37:53;4.25;;;1.95;;
70148;SDS011;57514;52.164;5.282;2023-05-20T10:40:33;8.20;;;2.10;;
70148;SDS011;57514;52.164;5.282;2023-05-20T10:43:11;6.43;;;2.25;;
70148;SDS011;57514;52.164;5.282;2023-05-20T10:45:54;5.07;;;1.85;;
70148;SDS011;57514;52.164;5.282;2023-05-20T10:48:30;4.55;;;2.00;;
70148;SDS011;57514;52.164;5.282;2023-05-20T10:53:36;7.50;;;2.03;;
70148;SDS011;57514;52.164;5.282;2023-05-20T10:56:15;6.70;;;2.00;;
70148;SDS011;57514;52.164;5.282;2023-05-20T10:58:44;4.72;;;2.25;;
70148;SDS011;57514;52.164;5.282;2023-05-20T11:01:16;6.97;;;1.88;;
70148;SDS011;57514;52.164;5.282;2023-05-20T11:03:44;7.15;;;2.03;;
70148;SDS011;57514;52.164;5.282;2023-05-20T11:06:16;8.13;;;2.10;;
70148;SDS011;57514;52.164;5.282;2023-05-20T11:08:49;6.15;;;2.10;;
70148;SDS011;57514;52.164;5.282;2023-05-20T11:11:29;5.18;;;2.05;;
70148;SDS011;57514;52.164;5.282;2023-05-20T11:13:56;6.35;;;1.95;;
70148;SDS011;57514;52.164;5.282;2023-05-20T11:16:23;4.18;;;2.15;;
70148;SDS011;57514;52.164;5.282;2023-05-20T11:18:51;5.47;;;2.10;;
70148;SDS011;57514;52.164;5.282;2023-05-20T11:21:18;4.45;;;2.10;;
70148;SDS011;57514;52.164;5.282;2023-05-20T11:23:45;4.05;;;2.20;;
70148;SDS011;57514;52.164;5.282;2023-05-20T11:26:12;6.00;;;2.00;;
70148;SDS011;57514;52.164;5.282;2023-05-20T11:28:39;5.20;;;2.10;;
70148;SDS011;57514;52.164;5.282;2023-05-20T11:31:09;4.75;;;2.42;;
70148;SDS011;57514;52.164;5.282;2023-05-20T11:34:08;4.57;;;2.00;;
70148;SDS011;57514;52.164;5.282;2023-05-20T11:36:41;4.53;;;2.08;;
70148;SDS011;57514;52.164;5.282;2023-05-20T11:39:08;4.60;;;1.90;;
70148;SDS011;57514;52.164;5.282;2023-05-20T11:41:37;6.22;;;1.90;;
70148;SDS011;57514;52.164;5.282;2023-05-20T11:47:04;3.35;;;1.88;;
70148;SDS011;57514;52.164;5.282;2023-05-20T11:49:38;7.15;;;1.98;;
70148;SDS011;57514;52.164;5.282;2023-05-20T11:52:08;6.50;;;2.30;;
70148;SDS011;57514;52.164;5.282;2023-05-20T11:54:36;7.00;;;2.10;;
70148;SDS011;57514;52.164;5.282;2023-05-20T11:57:03;6.07;;;1.80;;
70148;SDS011;57514;52.164;5.282;2023-05-20T11:59:33;4.38;;;1.85;;
70148;SDS011;57514;52.164;5.282;2023-05-20T12:02:01;4.70;;;2.15;;
70148;SDS011;57514;52.164;5.282;2023-05-20T12:04:29;4.53;;;2.30;;
70148;SDS011;57514;52.164;5.282;2023-05-20T12:07:00;4.78;;;1.85;;
70148;SDS011;57514;52.164;5.282;2023-05-20T12:10:09;6.70;;;2.25;;
70148;SDS011;57514;52.164;5.282;2023-05-20T12:12:41;5.95;;;2.20;;
70148;SDS011;57514;52.164;5.282;2023-05-20T12:15:15;4.22;;;1.90;;
70148;SDS011;57514;52.164;5.282;2023-05-20T12:17:46;4.68;;;2.08;;
70148;SDS011;57514;52.164;5.282;2023-05-20T12:20:25;4.32;;;1.95;;
70148;SDS011;57514;52.164;5.282;2023-05-20T12:22:52;5.28;;;2.15;;
70148;SDS011;57514;52.164;5.282;2023-05-20T12:25:19;5.38;;;1.85;;
70148;SDS011;57514;52.164;5.282;2023-05-20T12:27:47;3.40;;;1.85;;
70148;SDS011;57514;52.164;5.282;2023-05-20T12:30:15;3.63;;;2.08;;
70148;SDS011;57514;52.164;5.282;2023-05-20T12:32:44;4.32;;;1.88;;
70148;SDS011;57514;52.164;5.282;2023-05-20T12:35:12;4.88;;;1.80;;
70148;SDS011;57514;52.164;5.282;2023-05-20T12:37:42;4.05;;;2.03;;
70148;SDS011;57514;52.164;5.282;2023-05-20T12:40:12;6.05;;;1.80;;
70148;SDS011;57514;52.164;5.282;2023-05-20T12:45:45;5.15;;;1.95;;
70148;SDS011;57514;52.164;5.282;2023-05-20T12:48:12;7.80;;;2.20;;
70148;SDS011;57514;52.164;5.282;2023-05-20T12:50:39;4.18;;;1.92;;
70148;SDS011;57514;52.164;5.282;2023-05-20T12:53:07;5.15;;;1.90;;
70148;SDS011;57514;52.164;5.282;2023-05-20T12:55:34;4.43;;;2.10;;
70148;SDS011;57514;52.164;5.282;2023-05-20T12:58:05;5.88;;;2.08;;
70148;SDS011;57514;52.164;5.282;2023-05-20T13:00:35;6.13;;;2.20;;
70148;SDS011;57514;52.164;5.282;2023-05-20T13:03:10;6.18;;;2.10;;
70148;SDS011;57514;52.164;5.282;2023-05-20T13:05:41;5.88;;;2.10;;
70148;SDS011;57514;52.164;5.282;2023-05-20T13:08:32;4.78;;;2.28;;
70148;SDS011;57514;52.164;5.282;2023-05-20T13:11:17;3.38;;;1.75;;
70148;SDS011;57514;52.164;5.282;2023-05-20T13:13:45;6.75;;;2.20;;
70148;SDS011;57514;52.164;5.282;2023-05-20T13:19:06;5.10;;;2.10;;
70148;SDS011;57514;52.164;5.282;2023-05-20T13:21:34;6.03;;;2.30;;
70148;SDS011;57514;52.164;5.282;2023-05-20T13:24:01;5.95;;;2.00;;
70148;SDS011;57514;52.164;5.282;2023-05-20T13:26:34;6.85;;;2.10;;
70148;SDS011;57514;52.164;5.282;2023-05-20T13:29:06;5.75;;;1.95;;
70148;SDS011;57514;52.164;5.282;2023-05-20T13:31:37;4.45;;;1.98;;
70148;SDS011;57514;52.164;5.282;2023-05-20T13:34:22;8.07;;;2.50;;
70148;SDS011;57514;52.164;5.282;2023-05-20T13:40:25;5.63;;;1.85;;
70148;SDS011;57514;52.164;5.282;2023-05-20T13:45:42;3.28;;;1.75;;
70148;SDS011;57514;52.164;5.282;2023-05-20T13:48:18;5.75;;;2.67;;
70148;SDS011;57514;52.164;5.282;2023-05-20T13:50:56;7.53;;;2.00;;
70148;SDS011;57514;52.164;5.282;2023-05-20T13:53:39;7.20;;;2.45;;
70148;SDS011;57514;52.164;5.282;2023-05-20T13:56:09;4.47;;;2.08;;
70148;SDS011;57514;52.164;5.282;2023-05-20T13:58:56;4.50;;;2.28;;
70148;SDS011;57514;52.164;5.282;2023-05-20T14:04:46;8.93;;;2.40;;
70148;SDS011;57514;52.164;5.282;2023-05-20T14:07:29;5.20;;;2.35;;
70148;SDS011;57514;52.164;5.282;2023-05-20T14:13:39;9.25;;;2.35;;
70148;SDS011;57514;52.164;5.282;2023-05-20T14:16:09;7.22;;;2.55;;
70148;SDS011;57514;52.164;5.282;2023-05-20T14:18:53;4.93;;;2.10;;
70148;SDS011;57514;52.164;5.282;2023-05-20T14:21:30;6.15;;;2.72;;
70148;SDS011;57514;52.164;5.282;2023-05-20T14:26:33;7.80;;;2.40;;
70148;SDS011;57514;52.164;5.282;2023-05-20T14:29:22;6.45;;;2.20;;
70148;SDS011;57514;52.164;5.282;2023-05-20T14:31:55;5.60;;;1.88;;
70148;SDS011;57514;52.164;5.282;2023-05-20T14:35:03;7.10;;;2.20;;
70148;SDS011;57514;52.164;5.282;2023-05-20T14:37:33;6.78;;;2.55;;
70148;SDS011;57514;52.164;5.282;2023-05-20T14:40:03;5.05;;;2.30;;
70148;SDS011;57514;52.164;5.282;2023-05-20T14:42:58;5.47;;;2.17;;
70148;SDS011;57514;52.164;5.282;2023-05-20T14:45:29;6.68;;;2.30;;
70148;SDS011;57514;52.164;5.282;2023-05-20T14:54:53;3.83;;;1.67;;
70148;SDS011;57514;52.164;5.282;2023-05-20T14:57:31;5.30;;;2.05;;
70148;SDS011;57514;52.164;5.282;2023-05-20T15:00:05;6.20;;;2.10;;
70148;SDS011;57514;52.164;5.282;2023-05-20T15:08:41;6.40;;;2.47;;
70148;SDS011;57514;52.164;5.282;2023-05-20T15:11:20;7.03;;;2.15;;
70148;SDS011;57514;52.164;5.282;2023-05-20T15:14:03;5.63;;;2.42;;
70148;SDS011;57514;52.164;5.282;2023-05-20T15:16:36;6.00;;;2.10;;
70148;SDS011;57514;52.164;5.282;2023-05-20T15:19:07;6.10;;;2.17;;
70148;SDS011;57514;52.164;5.282;2023-05-20T15:30:15;6.28;;;2.00;;
70148;SDS011;57514;52.164;5.282;2023-05-20T15:35:28;5.85;;;2.70;;
70148;SDS011;57514;52.164;5.282;2023-05-20T15:37:55;6.95;;;2.65;;
70148;SDS011;57514;52.164;5.282;2023-05-20T15:40:26;5.75;;;2.40;;
70148;SDS011;57514;52.164;5.282;2023-05-20T15:43:38;6.40;;;2.70;;
70148;SDS011;57514;52.164;5.282;2023-05-20T15:49:58;9.00;;;2.78;;
70148;SDS011;57514;52.164;5.282;2023-05-20T15:52:36;5.70;;;2.80;;
70148;SDS011;57514;52.164;5.282;2023-05-20T15:55:03;7.10;;;3.30;;
70148;SDS011;57514;52.164;5.282;2023-05-20T15:57:31;6.95;;;2.72;;
70148;SDS011;57514;52.164;5.282;2023-05-20T15:59:58;6.63;;;2.67;;
70148;SDS011;57514;52.164;5.282;2023-05-20T16:02:25;5.93;;;2.72;;
70148;SDS011;57514;52.164;5.282;2023-05-20T16:04:53;7.53;;;2.20;;
70148;SDS011;57514;52.164;5.282;2023-05-20T16:07:21;4.18;;;2.30;;
70148;SDS011;57514;52.164;5.282;2023-05-20T16:09:48;7.25;;;2.42;;
70148;SDS011;57514;52.164;5.282;2023-05-20T16:12:15;6.68;;;2.50;;
70148;SDS011;57514;52.164;5.282;2023-05-20T16:14:43;7.45;;;3.05;;
70148;SDS011;57514;52.164;5.282;2023-05-20T16:17:10;6.60;;;2.50;;
70148;SDS011;57514;52.164;5.282;2023-05-20T16:19:38;5.47;;;2.20;;
70148;SDS011;57514;52.164;5.282;2023-05-20T16:22:05;3.65;;;1.83;;
70148;SDS011;57514;52.164;5.282;2023-05-20T16:24:34;4.35;;;2.17;;
70148;SDS011;57514;52.164;5.282;2023-05-20T16:27:01;7.82;;;2.70;;